createdAt,value
2022-10-18T00:01:23.972Z,83.49
2022-10-18T00:16:25.447Z,84.61
2022-10-18T00:31:28.333Z,86.47
2022-10-18T00:46:34.060Z,85.26
2022-10-18T01:01:35.538Z,88.89
2022-10-18T01:16:44.212Z,88.83
2022-10-18T01:31:48.047Z,88.13
2022-10-18T01:46:51.033Z,89.73
2022-10-18T02:01:52.960Z,88.29
2022-10-18T02:16:57.165Z,88.65
2022-10-18T02:32:08.409Z,92.65
2022-10-18T02:47:10.722Z,94.22
2022-10-18T03:02:12.188Z,87.22
2022-10-18T03:17:13.668Z,89.21
2022-10-18T03:32:15.106Z,93.60
2022-10-18T03:47:16.660Z,89.77
2022-10-18T04:02:18.273Z,86.82
2022-10-18T04:17:19.724Z,86.77
2022-10-18T04:32:21.201Z,92.44
2022-10-18T04:47:22.688Z,86.77
2022-10-18T05:02:24.130Z,82.60
2022-10-18T05:17:25.649Z,73.75
2022-10-18T05:32:27.274Z,69.32
2022-10-18T05:47:28.848Z,69.12
2022-10-18T06:02:30.418Z,63.85
2022-10-18T06:17:32.664Z,58.07
2022-10-18T06:32:34.243Z,61.27
2022-10-18T06:47:35.731Z,53.53
2022-10-18T07:02:37.829Z,55.42
2022-10-18T07:17:39.319Z,50.13
2022-10-18T07:32:40.818Z,54.49
2022-10-18T07:47:42.389Z,54.39
2022-10-18T08:02:43.937Z,52.04
2022-10-18T08:17:45.437Z,48.55
2022-10-18T08:32:46.897Z,49.60
2022-10-18T08:47:49.916Z,49.47
2022-10-18T09:02:54.545Z,45.41
2022-10-18T09:17:55.996Z,40.55
2022-10-18T09:33:15.859Z,45.10
2022-10-18T09:48:21.672Z,42.18
2022-10-18T10:03:23.277Z,41.82
2022-10-18T10:18:30.228Z,41.19
2022-10-18T10:33:33.806Z,38.05
2022-10-18T10:48:46.637Z,33.38
2022-10-18T11:03:49.488Z,34.61
2022-10-18T11:18:52.777Z,32.68
2022-10-18T11:34:08.611Z,32.68
2022-10-18T11:49:29.708Z,30.89
2022-10-18T12:04:34.955Z,32.00
2022-10-18T12:19:36.924Z,27.48
2022-10-18T12:34:44.632Z,29.01
2022-10-18T12:49:55.294Z,27.83
2022-10-18T13:04:56.969Z,28.43
2022-10-18T13:20:26.527Z,30.49
2022-10-18T13:35:46.959Z,29.94
2022-10-18T13:50:49.309Z,30.23
2022-10-18T14:05:59.828Z,31.62
2022-10-18T14:21:13.755Z,33.18
2022-10-18T14:36:22.498Z,33.56
2022-10-18T14:51:25.102Z,35.54
2022-10-18T15:06:27.354Z,35.46
2022-10-18T15:21:29.326Z,32.03
2022-10-18T15:36:32.435Z,31.48
2022-10-18T15:52:03.388Z,31.17
2022-10-18T16:07:04.873Z,31.91
2022-10-18T16:22:07.148Z,37.68
2022-10-18T16:37:09.274Z,43.14
2022-10-18T16:52:10.782Z,41.30
2022-10-18T17:22:26.780Z,41.84
2022-10-18T17:37:28.479Z,43.97
2022-10-18T17:52:30.400Z,41.93
2022-10-18T18:07:32.282Z,43.76
2022-10-18T18:22:35.310Z,50.41
2022-10-18T18:37:38.367Z,49.24
2022-10-18T18:52:39.895Z,50.01
2022-10-18T19:07:41.374Z,50.29
2022-10-18T19:22:43.048Z,54.47
2022-10-18T19:37:44.518Z,52.50
2022-10-18T19:52:46.079Z,54.51
2022-10-18T20:07:47.665Z,56.95
2022-10-18T20:22:49.790Z,59.27
2022-10-18T20:37:51.324Z,60.07
2022-10-18T20:52:53.378Z,61.17
2022-10-18T21:07:54.899Z,58.58
2022-10-18T21:22:57.531Z,59.61
2022-10-18T21:37:59.040Z,60.88
2022-10-18T21:53:00.531Z,62.39
2022-10-18T22:16:08.940Z,63.32
2022-10-18T22:31:14.522Z,60.88
2022-10-18T22:46:16.111Z,64.22
2022-10-18T23:01:18.881Z,65.02
2022-10-18T23:16:21.032Z,65.14
2022-10-18T23:31:24.068Z,65.49
2022-10-18T23:46:25.569Z,68.79
